createdAt,value
2019-02-02T00:02:38.638Z,12.50
2019-02-02T00:07:42.427Z,12.50
2019-02-02T00:12:46.332Z,13.25
2019-02-02T00:17:50.138Z,13.60
2019-02-02T00:22:53.953Z,10.00
2019-02-02T00:27:57.781Z,15.75
2019-02-02T00:33:01.586Z,11.25
2019-02-02T00:38:05.467Z,13.00
2019-02-02T00:43:09.256Z,13.50
2019-02-02T00:48:13.122Z,11.60
2019-02-02T00:53:17.012Z,12.80
2019-02-02T00:58:20.868Z,10.00
2019-02-02T01:03:24.681Z,13.25
2019-02-02T01:08:28.510Z,12.20
2019-02-02T01:13:32.381Z,12.50
2019-02-02T01:18:36.188Z,10.00
2019-02-02T01:23:40.092Z,9.00
2019-02-02T01:28:43.892Z,8.75
2019-02-02T01:33:47.693Z,13.75
2019-02-02T01:38:51.488Z,10.75
2019-02-02T01:43:55.297Z,10.50
2019-02-02T01:48:59.070Z,11.00
2019-02-02T01:54:02.864Z,10.60
2019-02-02T01:59:06.726Z,9.75
2019-02-02T02:04:10.550Z,11.00
2019-02-02T02:09:14.325Z,11.75
2019-02-02T02:14:18.120Z,12.00
2019-02-02T02:19:21.915Z,10.20
2019-02-02T02:24:25.783Z,12.00
2019-02-02T02:29:29.562Z,10.75
2019-02-02T02:34:33.362Z,10.50
2019-02-02T02:39:37.206Z,10.00
2019-02-02T02:44:40.995Z,9.00
2019-02-02T02:49:44.790Z,9.00
2019-02-02T02:54:48.639Z,12.25
2019-02-02T02:59:52.493Z,8.80
2019-02-02T03:04:56.265Z,10.25
2019-02-02T03:10:00.102Z,10.00
2019-02-02T03:15:04.777Z,9.20
2019-02-02T03:20:09.061Z,9.40
2019-02-02T03:25:15.192Z,9.00
2019-02-02T03:30:19.827Z,14.00
2019-02-02T03:35:23.720Z,10.20
2019-02-02T03:40:27.554Z,9.00
2019-02-02T03:45:31.421Z,10.50
2019-02-02T03:50:35.237Z,11.20
2019-02-02T03:55:39.026Z,10.50
2019-02-02T04:00:42.822Z,11.00
2019-02-02T04:05:46.706Z,10.00
2019-02-02T04:10:50.593Z,9.00
2019-02-02T04:15:54.351Z,9.25
2019-02-02T04:20:58.153Z,12.00
2019-02-02T04:26:01.901Z,9.80
2019-02-02T04:31:05.991Z,8.80
2019-02-02T04:36:09.781Z,12.00
2019-02-02T04:41:13.615Z,8.75
2019-02-02T04:46:17.497Z,11.25
2019-02-02T04:51:21.457Z,11.00
2019-02-02T04:56:25.274Z,8.75
2019-02-02T05:01:29.051Z,12.50
2019-02-02T05:06:32.885Z,8.00
2019-02-02T05:11:36.643Z,9.80
2019-02-02T05:16:40.451Z,10.25
2019-02-02T05:21:44.194Z,11.25
2019-02-02T05:26:47.970Z,9.00
2019-02-02T05:31:51.814Z,8.50
2019-02-02T05:36:55.653Z,9.00
2019-02-02T05:41:59.420Z,9.00
2019-02-02T05:47:03.236Z,8.00
2019-02-02T05:52:07.090Z,8.00
2019-02-02T05:57:10.861Z,7.50
2019-02-02T06:02:14.616Z,8.25
2019-02-02T06:07:18.401Z,11.20
2019-02-02T06:12:22.210Z,9.00
2019-02-02T06:17:25.960Z,9.00
2019-02-02T06:22:29.758Z,11.40
2019-02-02T06:27:33.591Z,9.50
2019-02-02T06:32:37.428Z,11.75
2019-02-02T06:37:41.227Z,9.60
2019-02-02T06:42:45.159Z,9.00
2019-02-02T06:47:49.048Z,10.60
2019-02-02T06:52:52.852Z,8.60
2019-02-02T06:57:56.621Z,10.75
2019-02-02T07:03:00.382Z,9.00
2019-02-02T07:08:04.236Z,7.40
2019-02-02T07:13:08.022Z,8.80
2019-02-02T07:18:11.880Z,9.25
2019-02-02T07:23:15.711Z,8.00
2019-02-02T07:28:19.470Z,8.20
2019-02-02T07:33:23.236Z,7.50
2019-02-02T07:38:27.046Z,8.80
2019-02-02T07:43:30.814Z,8.25
2019-02-02T07:48:34.720Z,8.25
2019-02-02T07:53:38.609Z,10.75
2019-02-02T07:58:42.404Z,8.00
2019-02-02T08:03:46.295Z,50.80
2019-02-02T08:08:50.117Z,68.75
2019-02-02T08:13:53.916Z,67.80
2019-02-02T08:18:58.005Z,59.25
2019-02-02T08:24:01.798Z,55.75
2019-02-02T08:29:05.622Z,49.00
2019-02-02T08:34:09.435Z,46.80
2019-02-02T08:39:13.235Z,43.00
2019-02-02T08:44:17.028Z,44.40
2019-02-02T08:49:20.811Z,44.00
2019-02-02T08:54:24.614Z,42.00
2019-02-02T08:59:28.439Z,46.40
2019-02-02T09:04:32.368Z,44.50
2019-02-02T09:09:36.261Z,44.20
2019-02-02T09:14:40.061Z,42.40
2019-02-02T09:19:43.956Z,45.25
2019-02-02T09:24:48.184Z,46.50
2019-02-02T09:29:51.970Z,41.25
2019-02-02T09:34:55.758Z,39.25
2019-02-02T09:39:59.799Z,39.75
2019-02-02T09:45:03.745Z,39.25
2019-02-02T09:50:09.521Z,37.80
2019-02-02T09:55:15.089Z,34.20
2019-02-02T10:00:21.190Z,37.20
2019-02-02T10:05:25.021Z,34.75
2019-02-02T10:10:30.451Z,41.20
2019-02-02T10:15:34.235Z,39.75
2019-02-02T10:20:38.213Z,32.60
2019-02-02T10:25:42.165Z,32.60
2019-02-02T10:30:46.035Z,39.00
2019-02-02T10:35:49.905Z,32.80
2019-02-02T10:40:53.724Z,33.20
2019-02-02T10:45:57.537Z,31.75
2019-02-02T10:51:01.323Z,33.75
2019-02-02T10:56:05.125Z,36.50
2019-02-02T11:01:08.908Z,32.60
2019-02-02T11:06:12.917Z,29.25
2019-02-02T11:11:16.795Z,35.20
2019-02-02T11:16:20.640Z,31.25
2019-02-02T11:21:24.616Z,34.00
2019-02-02T11:26:29.555Z,31.75
2019-02-02T11:31:33.518Z,33.25
2019-02-02T11:36:37.312Z,31.25
2019-02-02T11:41:41.119Z,28.75
2019-02-02T11:46:45.101Z,32.00
2019-02-02T11:51:48.914Z,36.80
2019-02-02T11:56:52.717Z,34.00
2019-02-02T12:01:56.505Z,33.50
2019-02-02T12:07:52.477Z,32.20
2019-02-02T12:12:56.423Z,31.50
2019-02-02T12:18:00.205Z,33.00
2019-02-02T12:23:04.040Z,30.00
2019-02-02T12:28:09.309Z,33.20
2019-02-02T12:33:13.643Z,31.25
2019-02-02T12:38:17.477Z,28.75
2019-02-02T12:43:21.578Z,29.50
2019-02-02T12:48:25.431Z,26.80
2019-02-02T12:53:29.633Z,30.40
2019-02-02T12:58:33.508Z,32.25
2019-02-02T13:03:37.444Z,29.75
2019-02-02T13:08:41.247Z,31.80
2019-02-02T13:13:45.426Z,27.20
2019-02-02T13:18:49.355Z,28.75
2019-02-02T13:23:53.273Z,27.25
2019-02-02T13:28:57.676Z,27.80
2019-02-02T13:34:01.820Z,28.75
2019-02-02T13:39:09.560Z,26.75
2019-02-02T13:44:13.535Z,32.40
2019-02-02T13:49:17.513Z,29.20
2019-02-02T13:54:21.583Z,28.50
2019-02-02T13:59:25.572Z,26.40
2019-02-02T14:04:29.663Z,30.75
2019-02-02T14:09:33.448Z,27.80
2019-02-02T14:14:37.373Z,25.75
2019-02-02T14:19:41.316Z,25.75
2019-02-02T14:24:45.106Z,25.40
2019-02-02T14:29:49.068Z,29.75
2019-02-02T14:34:53.337Z,25.00
2019-02-02T14:39:57.154Z,22.00
2019-02-02T14:45:01.272Z,23.20
2019-02-02T14:50:08.119Z,26.20
2019-02-02T14:55:15.197Z,24.40
2019-02-02T15:00:20.959Z,22.00
2019-02-02T15:05:24.838Z,23.00
2019-02-02T15:10:28.808Z,26.40
2019-02-02T15:15:32.868Z,25.75
2019-02-02T15:20:37.727Z,23.00
2019-02-02T15:25:51.246Z,26.75
2019-02-02T15:30:55.481Z,23.25
2019-02-02T15:35:59.403Z,21.50
2019-02-02T15:41:03.215Z,24.25
2019-02-02T15:46:07.273Z,20.80
2019-02-02T15:51:11.330Z,24.40
2019-02-02T15:56:15.606Z,21.20
2019-02-02T16:01:19.470Z,21.00
2019-02-02T16:06:23.379Z,21.00
2019-02-02T16:11:27.189Z,24.60
2019-02-02T16:16:31.245Z,25.60
2019-02-02T16:21:35.093Z,27.00
2019-02-02T16:26:38.888Z,25.20
2019-02-02T16:31:42.915Z,26.40
2019-02-02T16:36:46.883Z,25.75
2019-02-02T16:41:50.847Z,23.50
2019-02-02T16:46:54.768Z,20.00
2019-02-02T16:51:58.998Z,23.75
2019-02-02T16:57:03.400Z,26.00
2019-02-02T17:02:07.196Z,25.75
2019-02-02T17:07:11.183Z,29.00
2019-02-02T17:12:15.303Z,26.80
2019-02-02T17:17:19.271Z,30.60
2019-02-02T17:22:23.075Z,25.40
2019-02-02T17:27:27.128Z,29.20
2019-02-02T17:32:31.376Z,30.80
2019-02-02T17:37:35.380Z,28.80
2019-02-02T17:42:39.201Z,29.25
2019-02-02T17:47:43.028Z,35.25
2019-02-02T17:52:47.577Z,36.00
2019-02-02T17:57:51.399Z,38.00
2019-02-02T18:02:55.295Z,34.75
2019-02-02T18:07:59.412Z,34.60
2019-02-02T18:13:03.413Z,34.25
2019-02-02T18:18:07.537Z,36.20
2019-02-02T18:23:11.632Z,35.50
2019-02-02T18:28:16.172Z,36.40
2019-02-02T18:33:20.274Z,29.80
2019-02-02T18:38:24.219Z,38.80
2019-02-02T18:43:28.986Z,36.80
2019-02-02T18:48:32.793Z,39.50
2019-02-02T18:53:36.698Z,35.50
2019-02-02T18:58:41.324Z,37.50
2019-02-02T19:03:46.594Z,39.80
2019-02-02T19:08:51.673Z,37.25
2019-02-02T19:13:56.704Z,37.25
2019-02-02T19:19:02.708Z,38.40
2019-02-02T19:24:09.227Z,36.75
2019-02-02T19:29:15.748Z,38.40
2019-02-02T19:34:22.653Z,35.50
2019-02-02T19:39:29.281Z,39.00
2019-02-02T19:44:35.431Z,33.60
2019-02-02T19:49:42.268Z,37.40
2019-02-02T19:54:50.143Z,37.20
2019-02-02T19:59:57.503Z,35.50
2019-02-02T20:05:03.749Z,32.75
2019-02-02T20:10:12.817Z,37.60
2019-02-02T20:15:21.885Z,38.00
2019-02-02T20:20:30.155Z,34.75
2019-02-02T20:25:37.280Z,38.50
2019-02-02T20:30:45.052Z,36.25
2019-02-02T20:35:52.958Z,38.25
2019-02-02T20:41:01.430Z,39.80
2019-02-02T20:46:07.789Z,40.00
2019-02-02T20:51:13.775Z,36.75
2019-02-02T20:56:20.430Z,38.25
2019-02-02T21:01:26.568Z,37.75
2019-02-02T21:06:32.013Z,39.75
2019-02-02T21:11:37.356Z,42.20
2019-02-02T21:16:43.547Z,35.50
2019-02-02T21:21:49.608Z,33.75
2019-02-02T21:26:55.461Z,35.75
2019-02-02T21:32:00.751Z,34.00
2019-02-02T21:37:06.219Z,36.25
2019-02-02T21:42:11.468Z,30.50
2019-02-02T21:47:17.316Z,31.40
2019-02-02T21:52:22.218Z,30.75
2019-02-02T21:57:26.850Z,30.40
2019-02-02T22:02:32.931Z,31.00
2019-02-02T22:07:43.723Z,34.50
2019-02-02T22:12:48.314Z,31.50
2019-02-02T22:17:52.877Z,30.50
2019-02-02T22:22:57.299Z,28.25
2019-02-02T22:28:01.872Z,30.75
2019-02-02T22:33:05.969Z,31.75
2019-02-02T22:38:09.829Z,29.50
2019-02-02T22:43:13.670Z,31.50
2019-02-02T22:48:17.707Z,31.25
2019-02-02T22:53:21.535Z,30.00
2019-02-02T22:58:25.402Z,30.80
2019-02-02T23:04:16.641Z,31.40
2019-02-02T23:09:55.155Z,28.00
2019-02-02T23:15:28.991Z,26.80
2019-02-02T23:20:32.776Z,25.00
2019-02-02T23:25:36.742Z,27.00
2019-02-02T23:30:40.520Z,25.25
2019-02-02T23:35:44.310Z,30.00
2019-02-02T23:40:48.595Z,28.00
2019-02-02T23:45:52.388Z,29.75
2019-02-02T23:50:56.176Z,31.00
2019-02-02T23:55:59.988Z,26.00
